createdAt,value
2018-10-21T00:00:16.826Z,75.10
2018-10-21T00:02:45.047Z,58.57
2018-10-21T00:05:13.263Z,73.37
2018-10-21T00:07:41.519Z,66.43
2018-10-21T00:10:10.843Z,67.17
2018-10-21T00:12:39.426Z,69.60
2018-10-21T00:15:08.379Z,68.33
2018-10-21T00:17:36.630Z,66.47
2018-10-21T00:20:05.138Z,66.80
2018-10-21T00:22:33.359Z,69.10
2018-10-21T00:25:01.786Z,70.90
2018-10-21T00:27:30.246Z,74.33
2018-10-21T00:29:58.482Z,71.13
2018-10-21T00:32:30.946Z,79.57
2018-10-21T00:34:59.179Z,78.60
2018-10-21T00:37:27.611Z,71.10
2018-10-21T00:39:56.270Z,67.03
2018-10-21T00:42:24.490Z,74.60
2018-10-21T00:44:52.675Z,69.43
2018-10-21T00:47:20.857Z,68.80
2018-10-21T00:49:49.050Z,63.47
2018-10-21T00:52:17.227Z,79.80
2018-10-21T00:54:45.646Z,68.80
2018-10-21T00:57:13.876Z,79.93
2018-10-21T00:59:44.059Z,71.63
2018-10-21T01:02:12.261Z,67.33
2018-10-21T01:04:40.415Z,67.27
2018-10-21T01:07:08.590Z,65.50
2018-10-21T01:09:36.755Z,71.27
2018-10-21T01:12:05.282Z,58.13
2018-10-21T01:14:33.463Z,61.80
2018-10-21T01:17:01.863Z,63.20
2018-10-21T01:19:30.063Z,53.07
2018-10-21T01:21:58.237Z,57.93
2018-10-21T01:24:26.419Z,63.07
2018-10-21T01:26:54.588Z,67.50
2018-10-21T01:29:22.986Z,57.67
2018-10-21T01:31:51.178Z,58.77
2018-10-21T01:34:19.355Z,68.50
2018-10-21T01:36:47.666Z,68.10
2018-10-21T01:39:16.080Z,60.33
2018-10-21T01:41:44.147Z,63.20
2018-10-21T01:44:12.552Z,64.17
2018-10-21T01:46:40.722Z,58.23
2018-10-21T01:49:09.159Z,58.87
2018-10-21T01:51:37.362Z,58.97
2018-10-21T01:54:05.718Z,58.27
2018-10-21T01:56:33.886Z,59.47
2018-10-21T01:59:02.050Z,59.40
2018-10-21T02:01:30.226Z,60.67
2018-10-21T02:03:58.397Z,59.53
2018-10-21T02:06:26.603Z,57.83
2018-10-21T02:08:54.826Z,58.20
2018-10-21T02:11:22.945Z,59.60
2018-10-21T02:13:51.126Z,57.57
2018-10-21T02:16:19.522Z,59.73
2018-10-21T02:18:47.726Z,58.83
2018-10-21T02:21:15.988Z,61.73
2018-10-21T02:23:44.321Z,61.53
2018-10-21T02:26:12.556Z,63.70
2018-10-21T02:28:40.943Z,54.27
2018-10-21T02:31:09.139Z,53.87
2018-10-21T02:33:37.457Z,53.30
2018-10-21T02:36:05.742Z,52.43
2018-10-21T02:38:33.911Z,60.20
2018-10-21T02:41:24.050Z,57.67
2018-10-21T02:43:52.438Z,53.60
2018-10-21T02:46:21.834Z,57.17
2018-10-21T02:48:50.697Z,61.70
2018-10-21T02:51:18.970Z,51.07
2018-10-21T02:53:47.174Z,51.13
2018-10-21T02:56:15.398Z,56.93
2018-10-21T02:58:43.626Z,57.63
2018-10-21T03:01:11.865Z,54.60
2018-10-21T03:03:40.863Z,51.67
2018-10-21T03:06:09.200Z,59.40
2018-10-21T03:08:38.115Z,53.53
2018-10-21T03:11:06.467Z,54.77
2018-10-21T03:13:34.943Z,56.00
2018-10-21T03:16:03.811Z,61.03
2018-10-21T03:18:32.322Z,56.80
2018-10-21T03:21:01.323Z,66.47
2018-10-21T03:23:29.682Z,55.87
2018-10-21T03:25:58.128Z,59.67
2018-10-21T03:28:26.584Z,52.47
2018-10-21T03:30:54.857Z,54.20
2018-10-21T03:33:23.434Z,60.10
2018-10-21T03:35:51.618Z,52.50
2018-10-21T03:38:19.834Z,55.93
2018-10-21T03:40:48.262Z,49.33
2018-10-21T03:43:16.502Z,55.30
2018-10-21T03:45:44.694Z,56.33
2018-10-21T03:48:12.855Z,55.10
2018-10-21T03:50:41.054Z,54.23
2018-10-21T03:53:09.222Z,55.37
2018-10-21T03:55:39.356Z,58.17
2018-10-21T03:58:07.649Z,47.27
2018-10-21T04:00:36.491Z,54.10
2018-10-21T04:03:05.098Z,50.27
2018-10-21T04:05:33.785Z,57.87
2018-10-21T04:08:02.048Z,51.47
2018-10-21T04:10:30.263Z,54.07
2018-10-21T04:12:58.836Z,57.07
2018-10-21T04:15:27.321Z,49.63
2018-10-21T04:17:55.977Z,53.67
2018-10-21T04:20:24.409Z,55.40
2018-10-21T04:22:54.714Z,60.23
2018-10-21T04:25:24.083Z,50.47
2018-10-21T04:27:53.399Z,51.73
2018-10-21T04:30:22.642Z,51.70
2018-10-21T04:33:55.669Z,53.67
2018-10-21T04:36:25.503Z,55.27
2018-10-21T04:40:09.607Z,54.03
2018-10-21T04:42:37.868Z,50.73
2018-10-21T04:45:06.657Z,52.17
2018-10-21T04:47:34.827Z,54.27
2018-10-21T04:50:03.042Z,57.93
2018-10-21T04:52:32.047Z,50.57
2018-10-21T04:55:10.251Z,50.87
2018-10-21T04:57:39.611Z,54.97
2018-10-21T05:00:16.642Z,55.03
2018-10-21T05:02:44.840Z,51.30
2018-10-21T05:05:14.007Z,51.93
2018-10-21T05:07:42.373Z,51.77
2018-10-21T05:10:28.175Z,53.87
2018-10-21T05:12:56.451Z,51.07
2018-10-21T05:15:25.482Z,52.43
2018-10-21T05:17:53.856Z,51.03
2018-10-21T05:20:22.095Z,52.03
2018-10-21T05:22:50.497Z,51.80
2018-10-21T05:25:18.666Z,62.03
2018-10-21T05:27:46.866Z,52.87
2018-10-21T05:30:15.410Z,56.07
2018-10-21T05:32:43.755Z,49.73
2018-10-21T05:35:13.699Z,47.33
2018-10-21T05:37:41.923Z,42.33
2018-10-21T05:40:12.237Z,41.30
2018-10-21T05:42:40.598Z,43.83
2018-10-21T05:45:08.953Z,42.63
2018-10-21T05:47:38.158Z,40.97
2018-10-21T05:50:07.536Z,39.00
2018-10-21T05:52:35.795Z,38.57
2018-10-21T05:55:04.038Z,37.63
2018-10-21T05:57:32.488Z,41.57
2018-10-21T06:00:00.687Z,37.37
2018-10-21T06:02:28.893Z,40.17
2018-10-21T06:04:57.123Z,41.93
2018-10-21T06:07:25.326Z,42.83
2018-10-21T06:09:53.581Z,50.33
2018-10-21T06:12:21.805Z,49.10
2018-10-21T06:14:50.855Z,49.67
2018-10-21T06:17:26.747Z,46.53
2018-10-21T06:19:57.970Z,45.30
2018-10-21T06:22:26.446Z,45.80
2018-10-21T06:24:54.664Z,45.57
2018-10-21T06:27:22.879Z,42.43
2018-10-21T06:29:51.346Z,43.70
2018-10-21T06:32:19.999Z,37.83
2018-10-21T06:34:48.242Z,39.10
2018-10-21T06:37:16.685Z,34.27
2018-10-21T06:39:44.891Z,34.00
2018-10-21T06:42:13.103Z,31.23
2018-10-21T06:44:41.326Z,32.47
2018-10-21T06:47:09.543Z,33.40
2018-10-21T06:49:37.779Z,30.23
2018-10-21T06:52:06.117Z,30.70
2018-10-21T06:54:34.317Z,26.17
2018-10-21T06:57:02.641Z,28.17
2018-10-21T06:59:30.774Z,29.37
2018-10-21T07:01:59.015Z,30.87
2018-10-21T07:04:27.487Z,29.60
2018-10-21T07:06:56.118Z,29.30
2018-10-21T07:09:24.506Z,29.47
2018-10-21T07:11:52.722Z,28.00
2018-10-21T07:14:20.958Z,26.53
2018-10-21T07:16:49.388Z,28.67
2018-10-21T07:19:17.561Z,25.90
2018-10-21T07:21:45.762Z,22.03
2018-10-21T07:24:14.954Z,30.10
2018-10-21T07:26:43.455Z,24.07
2018-10-21T07:29:11.747Z,24.57
2018-10-21T07:31:40.171Z,32.60
2018-10-21T07:34:08.421Z,21.60
2018-10-21T07:36:36.718Z,22.90
2018-10-21T07:39:07.703Z,21.33
2018-10-21T07:41:36.443Z,27.57
2018-10-21T07:44:04.912Z,23.30
2018-10-21T07:46:33.415Z,21.83
2018-10-21T07:49:01.885Z,22.13
2018-10-21T07:51:30.461Z,24.13
2018-10-21T07:53:58.890Z,22.13
2018-10-21T07:56:27.098Z,20.63
2018-10-21T07:58:55.294Z,19.10
2018-10-21T08:01:23.502Z,20.93
2018-10-21T08:03:51.724Z,22.93
2018-10-21T08:06:32.922Z,20.57
2018-10-21T08:09:01.129Z,20.53
2018-10-21T08:11:29.314Z,18.83
2018-10-21T08:13:57.523Z,17.73
2018-10-21T08:16:25.695Z,15.77
2018-10-21T08:18:54.055Z,18.73
2018-10-21T08:21:22.345Z,16.83
2018-10-21T08:23:50.467Z,17.45
2018-10-21T08:26:18.752Z,17.15
2018-10-21T08:28:47.212Z,16.48
2018-10-21T08:31:20.519Z,13.38
2018-10-21T08:33:48.762Z,16.42
2018-10-21T08:36:17.027Z,10.53
2018-10-21T08:38:45.197Z,10.05
2018-10-21T08:41:13.962Z,15.85
2018-10-21T08:43:42.185Z,13.80
2018-10-21T08:46:10.466Z,9.88
2018-10-21T08:48:38.606Z,12.70
2018-10-21T08:51:06.827Z,10.38
2018-10-21T08:53:35.042Z,11.75
2018-10-21T08:56:03.246Z,13.15
2018-10-21T08:58:31.423Z,9.45
2018-10-21T09:00:59.665Z,10.18
2018-10-21T09:03:27.831Z,9.03
2018-10-21T09:05:56.074Z,10.40
2018-10-21T09:08:24.945Z,12.13
2018-10-21T09:10:53.445Z,9.55
2018-10-21T09:13:22.949Z,15.35
2018-10-21T09:15:51.147Z,10.48
2018-10-21T09:18:19.395Z,8.65
2018-10-21T09:20:48.012Z,14.00
2018-10-21T09:23:17.848Z,7.20
2018-10-21T09:25:46.582Z,7.33
2018-10-21T09:28:16.132Z,9.70
2018-10-21T09:30:44.627Z,10.78
2018-10-21T09:41:28.974Z,31.15
2018-10-21T09:43:57.252Z,13.40
2018-10-21T09:46:25.453Z,13.38
2018-10-21T09:48:53.664Z,7.78
2018-10-21T09:51:23.446Z,30.70
2018-10-21T09:53:51.640Z,9.68
2018-10-21T09:56:20.262Z,205.20
2018-10-21T09:58:48.542Z,82.88
2018-10-21T10:01:22.043Z,138.45
2018-10-21T10:03:50.459Z,41.30
2018-10-21T10:06:18.906Z,19.35
2018-10-21T10:08:47.158Z,288.40
2018-10-21T10:11:15.447Z,22.50
2018-10-21T10:13:43.799Z,28.60
2018-10-21T10:16:12.175Z,16.90
2018-10-21T10:18:40.390Z,14.65
2018-10-21T10:21:08.652Z,9.35
2018-10-21T10:23:37.118Z,7.97
2018-10-21T10:26:05.534Z,6.42
2018-10-21T10:28:33.790Z,6.62
2018-10-21T10:31:02.052Z,6.80
2018-10-21T10:33:30.319Z,8.68
2018-10-21T10:35:58.660Z,9.05
2018-10-21T10:38:27.164Z,5.45
2018-10-21T10:40:55.567Z,8.78
2018-10-21T10:43:23.935Z,11.45
2018-10-21T10:45:52.235Z,6.35
2018-10-21T10:48:20.720Z,13.62
2018-10-21T10:50:49.244Z,6.20
2018-10-21T10:53:17.673Z,8.60
2018-10-21T10:55:50.104Z,8.65
2018-10-21T10:58:18.505Z,8.48
2018-10-21T11:00:46.972Z,6.33
2018-10-21T11:03:15.480Z,7.67
2018-10-21T11:05:43.867Z,9.13
2018-10-21T11:08:12.180Z,10.80
2018-10-21T11:10:40.474Z,4.45
2018-10-21T11:13:08.912Z,36.65
2018-10-21T11:15:37.117Z,4.15
2018-10-21T11:18:05.371Z,6.05
2018-10-21T11:20:33.840Z,6.03
2018-10-21T11:23:02.142Z,5.90
2018-10-21T11:25:30.607Z,8.38
2018-10-21T11:27:58.856Z,5.53
2018-10-21T11:30:27.229Z,5.08
2018-10-21T11:32:55.639Z,5.75
2018-10-21T11:35:23.927Z,7.50
2018-10-21T11:37:52.252Z,9.78
2018-10-21T11:40:20.796Z,5.92
2018-10-21T11:42:49.034Z,8.68
2018-10-21T11:45:17.230Z,6.35
2018-10-21T11:47:45.674Z,8.93
2018-10-21T11:50:14.054Z,8.50
2018-10-21T11:52:42.340Z,10.00
2018-10-21T11:55:12.011Z,8.43
2018-10-21T11:57:40.731Z,8.45
2018-10-21T12:00:09.571Z,7.58
2018-10-21T12:02:37.783Z,8.83
2018-10-21T12:05:06.641Z,8.85
2018-10-21T12:07:35.530Z,7.55
2018-10-21T12:10:03.994Z,8.95
2018-10-21T12:12:32.443Z,10.68
2018-10-21T12:15:00.799Z,7.72
2018-10-21T12:17:29.398Z,6.60
2018-10-21T12:19:57.690Z,7.00
2018-10-21T12:22:26.075Z,7.50
2018-10-21T12:24:55.052Z,127.87
2018-10-21T12:27:23.489Z,28.47
2018-10-21T12:29:53.840Z,19.85
2018-10-21T12:32:22.390Z,23.95
2018-10-21T12:34:50.857Z,13.98
2018-10-21T12:37:20.285Z,8.73
2018-10-21T12:39:48.835Z,8.20
2018-10-21T12:42:19.750Z,7.72
2018-10-21T12:44:48.591Z,7.85
2018-10-21T12:47:18.082Z,6.53
2018-10-21T12:49:47.111Z,6.83
2018-10-21T12:52:16.251Z,8.48
2018-10-21T12:54:45.379Z,6.70
2018-10-21T13:02:38.009Z,11.35
2018-10-21T13:13:40.468Z,5.65
2018-10-21T13:16:28.060Z,12.20
2018-10-21T13:19:11.043Z,6.72
2018-10-21T13:21:40.847Z,7.67
2018-10-21T13:29:46.871Z,9.05
2018-10-21T13:32:26.423Z,5.47
2018-10-21T13:34:55.896Z,6.37
2018-10-21T13:37:24.787Z,31.05
2018-10-21T13:39:53.629Z,7.12
2018-10-21T13:42:23.183Z,8.43
2018-10-21T13:44:52.435Z,31.52
2018-10-21T13:47:20.790Z,8.45
2018-10-21T13:49:50.149Z,7.53
2018-10-21T13:52:22.801Z,5.47
2018-10-21T13:54:51.275Z,9.03
2018-10-21T13:57:20.549Z,8.03
2018-10-21T13:59:50.144Z,7.42
2018-10-21T14:02:18.911Z,6.60
2018-10-21T14:04:48.378Z,5.03
2018-10-21T14:07:17.159Z,5.20
2018-10-21T14:09:45.687Z,7.08
2018-10-21T14:12:14.911Z,6.70
2018-10-21T14:14:43.579Z,4.62
2018-10-21T14:17:12.302Z,6.35
2018-10-21T14:19:41.726Z,7.15
2018-10-21T14:22:15.895Z,6.80
2018-10-21T14:24:45.372Z,6.83
2018-10-21T14:27:15.503Z,6.47
2018-10-21T14:29:44.565Z,5.28
2018-10-21T14:32:15.333Z,7.35
2018-10-21T14:48:01.748Z,7.50
2018-10-21T14:50:30.957Z,6.73
2018-10-21T14:53:00.257Z,6.83
2018-10-21T14:55:29.145Z,6.47
2018-10-21T14:57:58.838Z,7.75
2018-10-21T15:00:28.438Z,7.67
2018-10-21T15:02:59.004Z,7.43
2018-10-21T15:05:28.555Z,7.07
2018-10-21T15:07:57.670Z,13.00
2018-10-21T15:10:26.807Z,18.57
2018-10-21T15:12:55.461Z,9.47
2018-10-21T15:15:25.814Z,7.97
2018-10-21T15:17:55.085Z,10.00
2018-10-21T15:20:24.432Z,9.80
2018-10-21T15:22:53.212Z,9.00
2018-10-21T15:25:22.638Z,9.57
2018-10-21T15:27:52.991Z,11.20
2018-10-21T15:30:22.738Z,8.37
2018-10-21T15:32:51.292Z,8.73
2018-10-21T15:35:20.167Z,11.87
2018-10-21T15:37:50.069Z,8.47
2018-10-21T15:40:18.728Z,13.70
2018-10-21T15:42:47.288Z,19.70
2018-10-21T15:45:15.735Z,8.53
2018-10-21T15:47:43.925Z,12.13
2018-10-21T15:50:12.202Z,16.03
2018-10-21T15:52:40.365Z,11.17
2018-10-21T15:55:09.144Z,19.47
2018-10-21T15:57:37.331Z,12.17
2018-10-21T16:00:08.027Z,14.03
2018-10-21T16:02:36.794Z,10.20
2018-10-21T16:05:05.276Z,10.73
2018-10-21T16:07:33.509Z,10.70
2018-10-21T16:10:01.932Z,16.87
2018-10-21T16:12:30.151Z,11.27
2018-10-21T16:14:58.367Z,14.30
2018-10-21T16:17:26.566Z,13.33
2018-10-21T16:19:54.750Z,15.17
2018-10-21T16:22:22.942Z,15.17
2018-10-21T16:24:51.320Z,16.03
2018-10-21T16:27:19.548Z,16.03
2018-10-21T16:29:47.955Z,17.20
2018-10-21T16:32:16.137Z,17.10
2018-10-21T16:34:44.727Z,15.97
2018-10-21T16:37:12.937Z,16.43
2018-10-21T16:39:41.364Z,17.73
2018-10-21T16:42:09.788Z,20.70
2018-10-21T16:44:37.996Z,21.73
2018-10-21T16:47:06.276Z,21.13
2018-10-21T16:49:34.514Z,25.73
2018-10-21T16:52:02.718Z,21.77
2018-10-21T16:54:30.967Z,24.17
2018-10-21T16:56:59.192Z,15.23
2018-10-21T16:59:27.517Z,15.73
2018-10-21T17:01:55.602Z,14.90
2018-10-21T17:04:23.794Z,16.83
2018-10-21T17:06:51.983Z,16.60
2018-10-21T17:09:20.317Z,15.50
2018-10-21T17:11:48.411Z,19.03
2018-10-21T17:14:16.655Z,18.10
2018-10-21T17:16:44.875Z,18.10
2018-10-21T17:19:13.162Z,17.70
2018-10-21T17:21:41.503Z,18.27
2018-10-21T17:24:09.731Z,20.23
2018-10-21T17:26:38.139Z,20.73
2018-10-21T17:29:06.407Z,14.27
2018-10-21T17:31:34.667Z,19.00
2018-10-21T17:34:02.922Z,16.90
2018-10-21T17:36:31.113Z,18.57
2018-10-21T17:38:59.582Z,16.10
2018-10-21T17:41:27.771Z,16.53
2018-10-21T17:43:56.196Z,14.27
2018-10-21T17:46:24.426Z,20.40
2018-10-21T17:48:52.602Z,23.73
2018-10-21T17:51:20.787Z,19.93
2018-10-21T17:53:48.990Z,17.70
2018-10-21T17:56:17.174Z,18.33
2018-10-21T17:58:45.401Z,19.20
2018-10-21T18:01:13.662Z,19.07
2018-10-21T18:03:41.840Z,18.83
2018-10-21T18:06:10.047Z,16.67
2018-10-21T18:08:38.274Z,17.77
2018-10-21T18:11:06.817Z,15.70
2018-10-21T18:13:35.233Z,22.87
2018-10-21T18:16:03.488Z,19.73
2018-10-21T18:18:32.230Z,18.60
2018-10-21T18:21:00.460Z,42.77
2018-10-21T18:23:28.662Z,66.57
2018-10-21T18:25:57.179Z,40.33
2018-10-21T18:28:25.336Z,81.80
2018-10-21T18:30:53.543Z,102.40
2018-10-21T18:33:21.751Z,82.73
2018-10-21T18:35:49.934Z,58.60
2018-10-21T18:38:18.132Z,50.47
2018-10-21T18:40:46.531Z,38.57
2018-10-21T18:43:14.608Z,25.63
2018-10-21T18:45:43.032Z,22.93
2018-10-21T18:48:11.228Z,25.43
2018-10-21T18:50:39.435Z,26.70
2018-10-21T18:53:07.637Z,21.17
2018-10-21T18:55:36.019Z,23.87
2018-10-21T18:58:04.381Z,20.07
2018-10-21T19:00:32.576Z,18.33
2018-10-21T19:03:00.799Z,19.67
2018-10-21T19:05:29.027Z,16.17
2018-10-21T19:07:57.645Z,14.13
2018-10-21T19:10:25.908Z,11.10
2018-10-21T19:13:00.049Z,13.17
2018-10-21T19:15:22.546Z,12.53
2018-10-21T19:17:50.722Z,13.63
2018-10-21T19:20:36.896Z,13.23
2018-10-21T19:23:05.432Z,11.60
2018-10-21T19:25:33.633Z,10.67
2018-10-21T19:28:01.845Z,12.70
2018-10-21T19:30:30.024Z,10.57
2018-10-21T19:32:58.214Z,11.13
2018-10-21T19:35:26.656Z,17.90
2018-10-21T19:37:54.885Z,10.73
2018-10-21T19:40:23.081Z,10.10
2018-10-21T19:42:52.294Z,10.50
2018-10-21T19:45:20.494Z,10.00
2018-10-21T19:47:48.767Z,9.83
2018-10-21T19:50:17.370Z,9.80
2018-10-21T19:52:45.674Z,12.30
2018-10-21T19:55:14.053Z,14.40
2018-10-21T19:57:42.761Z,11.00
2018-10-21T20:00:13.622Z,13.67
2018-10-21T20:02:42.275Z,17.90
2018-10-21T20:05:10.743Z,11.33
2018-10-21T20:07:38.959Z,15.10
2018-10-21T20:10:09.340Z,16.10
2018-10-21T20:12:38.136Z,19.83
2018-10-21T20:15:07.474Z,18.87
2018-10-21T20:17:35.722Z,18.27
2018-10-21T20:20:03.988Z,13.97
2018-10-21T20:22:32.237Z,14.37
2018-10-21T20:25:00.502Z,15.43
2018-10-21T20:27:28.711Z,17.37
2018-10-21T20:29:56.951Z,17.20
2018-10-21T20:32:25.583Z,14.53
2018-10-21T20:34:53.869Z,16.50
2018-10-21T20:37:22.435Z,13.27
2018-10-21T20:39:50.684Z,15.63
2018-10-21T20:42:19.035Z,17.83
2018-10-21T20:44:47.252Z,15.90
2018-10-21T20:47:16.099Z,15.53
2018-10-21T20:49:44.305Z,17.43
2018-10-21T20:52:13.092Z,23.80
2018-10-21T20:54:47.290Z,15.20
2018-10-21T20:57:15.594Z,17.20
2018-10-21T20:59:45.236Z,13.57
2018-10-21T21:02:14.323Z,13.77
2018-10-21T21:04:42.518Z,15.17
2018-10-21T21:07:11.070Z,13.70
2018-10-21T21:09:39.976Z,15.83
2018-10-21T21:12:08.236Z,19.53
2018-10-21T21:14:36.452Z,16.33
2018-10-21T21:17:05.048Z,19.07
2018-10-21T21:19:33.689Z,24.40
2018-10-21T21:22:02.007Z,19.97
2018-10-21T21:24:30.118Z,20.83
2018-10-21T21:26:58.346Z,19.27
2018-10-21T21:29:26.595Z,19.43
2018-10-21T21:31:54.814Z,15.77
2018-10-21T21:34:22.995Z,13.10
2018-10-21T21:36:51.437Z,13.93
2018-10-21T21:39:21.679Z,14.93
2018-10-21T21:41:50.108Z,19.47
2018-10-21T21:44:18.303Z,16.17
2018-10-21T21:46:47.354Z,17.93
2018-10-21T21:49:15.711Z,18.10
2018-10-21T21:51:43.958Z,21.20
2018-10-21T21:54:13.590Z,21.03
2018-10-21T21:56:42.432Z,18.27
2018-10-21T21:59:10.671Z,21.57
2018-10-21T22:01:39.216Z,15.23
2018-10-21T22:04:07.889Z,18.73
2018-10-21T22:06:36.299Z,18.70
2018-10-21T22:09:08.790Z,19.73
2018-10-21T22:11:37.350Z,21.93
2018-10-21T22:14:06.247Z,19.27
2018-10-21T22:16:34.503Z,16.27
2018-10-21T22:19:02.996Z,18.20
2018-10-21T22:21:31.475Z,22.73
2018-10-21T22:23:59.995Z,23.57
2018-10-21T22:26:28.427Z,21.40
2018-10-21T22:28:56.906Z,17.77
2018-10-21T22:31:25.278Z,17.03
2018-10-21T22:33:53.509Z,16.33
2018-10-21T22:36:21.779Z,18.70
2018-10-21T22:38:50.028Z,19.43
2018-10-21T22:41:18.706Z,16.13
2018-10-21T22:43:46.956Z,18.80
2018-10-21T22:46:15.325Z,19.03
2018-10-21T22:48:43.487Z,18.67
2018-10-21T22:51:11.693Z,19.40
2018-10-21T22:53:39.923Z,16.70
2018-10-21T22:56:08.102Z,21.23
2018-10-21T22:58:36.313Z,17.17
2018-10-21T23:01:04.940Z,19.53
2018-10-21T23:03:33.155Z,16.63
2018-10-21T23:06:01.389Z,18.83
2018-10-21T23:08:29.563Z,15.80
2018-10-21T23:10:57.991Z,15.73
2018-10-21T23:13:26.178Z,16.60
2018-10-21T23:15:54.414Z,16.23
2018-10-21T23:18:22.593Z,16.70
2018-10-21T23:20:50.803Z,14.67
2018-10-21T23:23:19.024Z,19.77
2018-10-21T23:25:47.238Z,14.97
2018-10-21T23:28:15.537Z,17.70
2018-10-21T23:30:44.283Z,15.63
2018-10-21T23:33:12.480Z,13.63
2018-10-21T23:35:40.689Z,15.77
2018-10-21T23:38:09.149Z,13.87
2018-10-21T23:40:37.566Z,14.23
2018-10-21T23:43:05.768Z,14.90
2018-10-21T23:45:33.972Z,14.50
2018-10-21T23:48:02.182Z,16.27
2018-10-21T23:50:30.352Z,15.23
2018-10-21T23:52:58.555Z,13.97
2018-10-21T23:55:26.748Z,17.83
2018-10-21T23:57:54.954Z,15.10
